Time;durP1;ratioP1;P1;durP2;ratioP2;P2;SDS_P1;SDS_P2;PMS_P1;PMS_P2;Temp;Humidity;BMP_temperature;BMP_pressure;BME280_temperature;BME280_humidity;BME280_pressure;Samples;Min_cycle;Max_cycle;Signal;HPM_P1;HPM_P2
2022/03/16 00:00:14;;;;;;;65.10;20.33;;;4.90;99.90;4.00;101284;;;;582412;246;24053;-79
2022/03/16 00:02:45;;;;;;;40.90;18.23;;;4.90;99.90;4.00;101279;;;;573688;247;24062;-79
2022/03/16 00:05:11;;;;;;;56.67;21.57;;;4.90;99.90;4.00;101284;;;;582552;245;24137;-79
2022/03/16 00:07:40;;;;;;;75.77;19.23;;;5.00;99.90;4.10;101290;;;;582593;246;24071;-79
2022/03/16 00:10:10;;;;;;;44.33;19.10;;;4.90;99.90;4.00;101278;;;;582933;246;24116;-79
2022/03/16 00:12:38;;;;;;;47.33;18.13;;;4.90;99.90;4.00;101281;;;;573991;247;24101;-79
2022/03/16 00:15:07;;;;;;;68.27;20.17;;;4.90;99.90;4.00;101278;;;;574345;247;24073;-79
2022/03/16 00:17:35;;;;;;;61.40;19.10;;;4.90;99.90;4.00;101280;;;;573945;247;25106;-79
2022/03/16 00:20:04;;;;;;;63.57;19.47;;;4.90;99.90;4.00;101275;;;;582824;246;24100;-79
2022/03/16 00:22:32;;;;;;;54.77;18.37;;;4.90;99.90;4.00;101274;;;;573889;245;24076;-79
2022/03/16 00:25:01;;;;;;;71.70;19.70;;;4.90;99.90;4.00;101268;;;;569024;247;24058;-78
2022/03/16 00:27:27;;;;;;;71.80;20.37;;;4.90;99.90;4.00;101269;;;;573787;247;24111;-78
2022/03/16 00:29:56;;;;;;;88.03;20.67;;;4.90;99.90;4.00;101261;;;;568706;247;24104;-78
2022/03/16 00:32:25;;;;;;;62.23;21.07;;;4.90;99.90;3.90;101259;;;;568758;247;24046;-78
2022/03/16 00:34:56;;;;;;;42.80;18.37;;;4.90;99.90;3.90;101263;;;;568793;247;24104;-79
2022/03/16 00:37:21;;;;;;;70.03;19.37;;;4.80;99.90;3.90;101257;;;;573306;247;24107;-78
2022/03/16 00:39:49;;;;;;;51.67;20.07;;;4.80;99.90;3.90;101262;;;;568788;247;24090;-79
2022/03/16 00:42:16;;;;;;;75.80;19.17;;;4.80;99.90;3.90;101255;;;;569023;247;24061;-79
2022/03/16 00:44:44;;;;;;;60.97;20.03;;;4.80;99.90;3.90;101257;;;;574165;247;24058;-79
2022/03/16 00:47:13;;;;;;;55.90;18.53;;;4.80;99.90;3.90;101253;;;;569129;247;24065;-80
2022/03/16 00:49:41;;;;;;;52.60;18.90;;;4.80;99.90;3.90;101258;;;;569466;247;24076;-79
2022/03/16 00:52:12;;;;;;;60.50;18.87;;;4.80;99.90;3.90;101253;;;;573767;247;24058;-80
2022/03/16 00:54:37;;;;;;;64.53;18.57;;;4.80;99.90;3.90;101256;;;;573609;247;24080;-79
2022/03/16 00:57:05;;;;;;;54.57;19.83;;;4.80;99.90;3.90;101255;;;;582493;247;25092;-79
2022/03/16 00:59:33;;;;;;;57.83;20.17;;;4.80;99.90;3.90;101247;;;;568750;247;24073;-79
2022/03/16 01:02:01;;;;;;;94.63;21.23;;;4.80;99.90;3.90;101250;;;;568832;247;24054;-79
2022/03/16 01:04:28;;;;;;;60.63;20.17;;;4.80;99.90;3.90;101250;;;;569899;246;24221;-79
2022/03/16 01:06:56;;;;;;;87.77;20.43;;;4.80;99.90;3.80;101241;;;;583161;246;24074;-78
2022/03/16 01:09:24;;;;;;;58.63;20.43;;;4.70;99.90;3.90;101243;;;;569400;246;24062;-79
2022/03/16 01:11:52;;;;;;;80.37;22.93;;;4.80;99.90;3.80;101237;;;;569527;246;24061;-78
2022/03/16 01:14:23;;;;;;;87.47;20.70;;;4.70;99.90;3.80;101238;;;;569242;247;24099;-77
2022/03/16 01:16:48;;;;;;;56.40;20.83;;;4.70;99.90;3.90;101238;;;;582653;246;24117;-78
2022/03/16 01:19:16;;;;;;;77.23;21.87;;;4.70;99.90;3.90;101244;;;;569261;247;24068;-79
2022/03/16 01:21:45;;;;;;;65.90;21.90;;;4.80;99.90;3.90;101243;;;;569237;247;24046;-78
2022/03/16 01:24:13;;;;;;;72.60;22.87;;;4.80;99.90;4.00;101241;;;;569118;247;24085;-78
2022/03/16 01:26:41;;;;;;;80.37;20.83;;;4.80;99.90;4.00;101231;;;;573924;247;24139;-78
2022/03/16 01:29:09;;;;;;;56.97;20.10;;;4.80;99.90;4.00;101234;;;;569091;247;25117;-80
2022/03/16 01:31:37;;;;;;;63.83;21.93;;;4.80;99.90;4.00;101230;;;;569074;247;24075;-79
2022/03/16 01:34:05;;;;;;;58.27;19.30;;;4.80;99.90;4.00;101222;;;;569042;247;24054;-79
2022/03/16 01:36:33;;;;;;;41.63;18.00;;;4.80;99.90;4.00;101229;;;;582747;246;24055;-79
2022/03/16 01:39:04;;;;;;;41.87;19.67;;;4.80;99.90;4.00;101231;;;;569025;247;24124;-79
2022/03/16 01:41:29;;;;;;;43.53;17.67;;;4.80;99.90;4.00;101238;;;;573701;247;24058;-77
2022/03/16 01:43:58;;;;;;;46.73;19.00;;;4.90;99.90;4.00;101241;;;;568874;247;24058;-79
2022/03/16 01:46:26;;;;;;;37.50;18.37;;;4.90;99.90;4.00;101231;;;;568834;247;24058;-79
2022/03/16 01:48:57;;;;;;;52.70;18.97;;;4.90;99.90;4.00;101239;;;;568822;247;24050;-79
2022/03/16 01:51:22;;;;;;;61.43;20.83;;;4.90;99.90;4.00;101239;;;;582135;247;24064;-79
2022/03/16 01:53:50;;;;;;;42.17;18.23;;;4.90;99.90;4.00;101234;;;;582469;245;24093;-79
2022/03/16 01:56:22;;;;;;;45.47;18.10;;;4.90;99.90;4.00;101234;;;;582462;245;24052;-79
2022/03/16 01:58:46;;;;;;;33.63;17.70;;;4.90;99.90;4.00;101233;;;;573656;247;24062;-79
2022/03/16 02:01:15;;;;;;;59.77;18.67;;;4.90;99.90;4.10;101235;;;;582470;246;24098;-79
2022/03/16 02:03:45;;;;;;;36.10;17.60;;;4.90;99.90;4.10;101243;;;;568886;247;24084;-79
2022/03/16 02:06:10;;;;;;;37.53;18.80;;;5.00;99.90;4.10;101235;;;;582443;244;24116;-79
2022/03/16 02:08:41;;;;;;;52.27;17.60;;;5.00;99.90;4.10;101244;;;;573067;247;24076;-79
2022/03/16 02:11:06;;;;;;;49.77;18.57;;;5.00;99.90;4.10;101244;;;;573443;247;24069;-78
2022/03/16 02:13:36;;;;;;;42.23;18.47;;;5.00;99.90;4.10;101256;;;;568648;247;24072;-80
2022/03/16 02:16:02;;;;;;;46.53;19.27;;;5.00;99.90;4.20;101251;;;;571016;246;24090;-81
2022/03/16 02:18:30;;;;;;;52.30;19.80;;;5.10;99.90;4.20;101256;;;;575714;246;24058;-79
2022/03/16 02:20:58;;;;;;;41.20;18.47;;;5.10;99.90;4.20;101261;;;;575573;246;24163;-81
2022/03/16 02:23:26;;;;;;;93.60;20.20;;;5.10;99.90;4.20;101259;;;;570806;246;24081;-81
2022/03/16 02:25:56;;;;;;;42.40;18.03;;;5.10;99.90;4.20;101260;;;;570598;247;24107;-79
2022/03/16 02:28:22;;;;;;;62.53;17.03;;;5.10;99.90;4.20;101261;;;;575435;247;24093;-81
2022/03/16 02:30:50;;;;;;;54.47;18.87;;;5.10;99.90;4.10;101271;;;;575277;247;24168;-81
2022/03/16 02:33:17;;;;;;;57.87;19.97;;;5.00;99.90;4.10;101271;;;;584160;246;24023;-81
2022/03/16 02:35:48;;;;;;;45.73;18.27;;;5.00;99.90;4.10;101273;;;;570499;247;24087;-81
2022/03/16 02:38:16;;;;;;;43.80;19.03;;;5.00;99.90;4.10;101271;;;;583603;246;24090;-81
2022/03/16 02:40:41;;;;;;;54.83;18.63;;;5.00;99.90;4.10;101275;;;;574971;247;24156;-81
2022/03/16 02:43:12;;;;;;;61.17;21.80;;;5.00;99.90;4.10;101272;;;;569940;247;24056;-81
2022/03/16 02:45:37;;;;;;;52.23;21.63;;;5.00;99.90;4.20;101278;;;;574401;247;24065;-78
2022/03/16 02:48:08;;;;;;;84.13;21.17;;;5.00;99.90;4.20;101276;;;;574221;247;24084;-79
2022/03/16 02:50:38;;;;;;;90.70;23.57;;;5.00;99.90;4.20;101270;;;;573632;247;24073;-78
2022/03/16 02:53:01;;;;;;;283.93;46.00;;;5.10;99.90;4.20;101283;;;;573186;247;24096;-79
2022/03/16 02:55:30;;;;;;;94.80;26.23;;;5.00;99.90;4.20;101276;;;;568836;247;24087;-79
2022/03/16 02:57:57;;;;;;;53.63;21.40;;;5.00;99.90;4.10;101281;;;;568827;247;24077;-80
2022/03/16 03:00:26;;;;;;;63.00;20.47;;;5.00;99.90;4.10;101292;;;;568460;247;24064;-79
2022/03/16 03:02:57;;;;;;;102.33;21.20;;;5.00;99.90;4.10;101287;;;;568459;247;24070;-79
2022/03/16 03:05:22;;;;;;;52.27;23.20;;;5.00;99.90;4.10;101286;;;;573087;247;24132;-78
2022/03/16 03:07:50;;;;;;;65.13;20.53;;;4.90;99.90;4.10;101305;;;;582176;246;24102;-80
2022/03/16 03:10:19;;;;;;;64.40;19.90;;;4.90;99.90;4.00;101296;;;;582014;247;25102;-80
2022/03/16 03:12:51;;;;;;;68.93;19.37;;;4.90;99.90;4.00;101306;;;;568646;247;24072;-79
2022/03/16 03:15:15;;;;;;;58.70;18.73;;;4.90;99.90;4.00;101308;;;;567485;247;24112;-78
2022/03/16 03:17:43;;;;;;;43.73;18.47;;;4.90;99.90;4.00;101309;;;;582502;246;24086;-80
2022/03/16 03:20:11;;;;;;;62.30;18.13;;;4.90;99.90;3.90;101309;;;;573731;247;24050;-79
2022/03/16 03:22:42;;;;;;;48.90;19.77;;;4.80;99.90;3.90;101320;;;;582478;246;24062;-79
2022/03/16 03:25:13;;;;;;;66.43;17.63;;;4.80;99.90;3.80;101320;;;;582560;246;24070;-78
2022/03/16 03:27:40;;;;;;;40.73;17.27;;;4.70;99.90;3.80;101317;;;;569883;246;24065;-79
2022/03/16 03:30:08;;;;;;;47.40;18.20;;;4.70;99.90;3.70;101325;;;;570031;246;24073;-79
2022/03/16 03:32:37;;;;;;;68.20;20.03;;;4.60;99.90;3.70;101328;;;;574517;246;24098;-80
2022/03/16 03:35:08;;;;;;;52.10;17.83;;;4.60;99.90;3.70;101327;;;;583225;246;24064;-78
2022/03/16 03:37:33;;;;;;;50.87;18.20;;;4.60;99.90;3.70;101329;;;;582769;246;24131;-79
2022/03/16 03:40:02;;;;;;;39.73;18.53;;;4.60;99.90;3.70;101330;;;;569247;247;24060;-79
2022/03/16 03:42:30;;;;;;;52.67;17.77;;;4.50;99.90;3.70;101330;;;;569436;247;24091;-79
2022/03/16 03:44:57;;;;;;;53.83;17.40;;;4.60;99.90;3.70;101342;;;;569216;247;24053;-78
2022/03/16 03:47:29;;;;;;;51.97;17.33;;;4.60;99.90;3.70;101335;;;;573957;247;24061;-79
2022/03/16 03:49:53;;;;;;;30.20;15.63;;;4.60;99.90;3.70;101340;;;;565901;247;24105;-79
2022/03/16 03:52:21;;;;;;;71.30;16.00;;;4.60;99.90;3.70;101337;;;;582793;246;28297;-79
2022/03/16 03:54:49;;;;;;;35.80;15.67;;;4.60;99.90;3.70;101334;;;;568918;247;24160;-80
2022/03/16 03:57:17;;;;;;;37.53;16.17;;;4.60;99.90;3.70;101329;;;;568824;247;24056;-79
2022/03/16 03:59:49;;;;;;;45.60;17.40;;;4.60;99.90;3.70;101342;;;;569329;247;24073;-81
2022/03/16 04:02:13;;;;;;;40.07;15.50;;;4.60;99.90;3.70;101342;;;;574240;247;24068;-80
2022/03/16 04:04:41;;;;;;;39.03;15.70;;;4.60;99.90;3.70;101347;;;;569113;247;24095;-80
2022/03/16 04:07:09;;;;;;;38.93;13.47;;;4.60;99.90;3.60;101343;;;;568758;247;24076;-79
2022/03/16 04:09:37;;;;;;;37.00;14.87;;;4.60;99.90;3.60;101337;;;;568510;247;24060;-80
2022/03/16 04:12:05;;;;;;;40.97;16.63;;;4.50;99.90;3.60;101344;;;;582015;247;24077;-80
2022/03/16 04:14:33;;;;;;;44.57;16.87;;;4.50;99.90;3.60;101334;;;;573680;245;24097;-79
2022/03/16 04:17:02;;;;;;;41.33;14.90;;;4.50;99.90;3.60;101331;;;;568824;247;24078;-79
2022/03/16 04:19:30;;;;;;;45.20;16.27;;;4.50;99.90;3.60;101328;;;;568837;247;24069;-80
2022/03/16 04:21:58;;;;;;;32.20;15.50;;;4.50;99.90;3.60;101341;;;;568804;247;24061;-79
2022/03/16 04:24:26;;;;;;;33.77;15.53;;;4.50;99.90;3.70;101342;;;;568910;247;24111;-79
2022/03/16 04:26:54;;;;;;;54.23;15.63;;;4.50;99.90;3.70;101330;;;;568862;247;24105;-79
2022/03/16 04:29:24;;;;;;;38.90;15.17;;;4.60;99.90;3.70;101332;;;;568897;247;24148;-79
2022/03/16 04:31:49;;;;;;;43.60;14.87;;;4.60;99.90;3.70;101328;;;;568865;247;24069;-80
2022/03/16 04:34:17;;;;;;;47.87;16.57;;;4.60;99.90;3.70;101330;;;;568794;247;24065;-78
2022/03/16 04:36:45;;;;;;;36.10;12.87;;;4.60;99.90;3.70;101318;;;;582431;247;24093;-79
2022/03/16 04:39:13;;;;;;;42.83;15.07;;;4.60;99.90;3.70;101336;;;;569820;246;24095;-79
2022/03/16 04:41:41;;;;;;;32.93;13.43;;;4.60;99.90;3.70;101336;;;;569871;246;24064;-79
2022/03/16 04:44:09;;;;;;;30.93;14.27;;;4.60;99.90;3.70;101342;;;;569611;246;24107;-79
2022/03/16 04:46:37;;;;;;;34.10;14.00;;;4.60;99.90;3.70;101344;;;;569528;246;24066;-79
2022/03/16 04:49:05;;;;;;;45.83;14.60;;;4.60;99.90;3.70;101346;;;;569250;247;25109;-79
2022/03/16 04:51:33;;;;;;;58.87;14.97;;;4.60;99.90;3.70;101349;;;;568846;247;24107;-79
2022/03/16 04:54:01;;;;;;;40.23;14.13;;;4.60;99.90;3.70;101355;;;;569050;247;24057;-80
2022/03/16 04:56:29;;;;;;;48.27;16.23;;;4.60;99.90;3.70;101352;;;;568859;247;25149;-79
2022/03/16 04:58:57;;;;;;;56.43;17.60;;;4.60;99.90;3.80;101352;;;;573631;247;24159;-80
2022/03/16 05:01:25;;;;;;;75.53;16.47;;;4.60;99.90;3.70;101365;;;;568717;247;24062;-79
2022/03/16 05:03:53;;;;;;;37.30;15.30;;;4.60;99.90;3.70;101361;;;;568759;247;24087;-80
2022/03/16 05:06:21;;;;;;;38.67;14.87;;;4.60;99.90;3.80;101367;;;;568835;247;24095;-79
2022/03/16 05:08:50;;;;;;;52.53;15.43;;;4.70;99.90;3.80;101366;;;;568847;247;24118;-80
2022/03/16 05:11:20;;;;;;;40.80;15.67;;;4.60;99.90;3.80;101373;;;;569012;247;24065;-79
2022/03/16 05:13:45;;;;;;;43.83;16.60;;;4.60;99.90;3.80;101380;;;;573623;247;24091;-79
2022/03/16 05:16:13;;;;;;;51.63;16.93;;;4.70;99.90;3.80;101370;;;;568826;247;24099;-80
2022/03/16 05:18:44;;;;;;;46.60;16.40;;;4.70;99.90;3.80;101376;;;;568862;247;24159;-79
2022/03/16 05:21:09;;;;;;;38.17;17.57;;;4.70;99.90;3.80;101392;;;;582083;246;24080;-79
2022/03/16 05:23:40;;;;;;;47.07;16.27;;;4.70;99.90;3.90;101391;;;;573647;247;24127;-79
2022/03/16 05:26:05;;;;;;;40.73;14.13;;;4.70;99.90;3.90;101388;;;;582217;247;24171;-78
2022/03/16 05:28:37;;;;;;;39.93;16.43;;;4.70;99.90;3.90;101383;;;;573581;247;24069;-79
2022/03/16 05:31:01;;;;;;;43.10;16.63;;;4.80;99.90;3.90;101383;;;;573129;247;24135;-79
2022/03/16 05:33:29;;;;;;;48.47;17.13;;;4.80;99.90;4.00;101393;;;;568719;247;24068;-79
2022/03/16 05:35:57;;;;;;;105.57;31.50;;;4.90;99.90;4.00;101389;;;;563891;247;35138;-79
2022/03/16 05:38:25;;;;;;;118.13;24.23;;;4.90;99.90;4.00;101392;;;;582604;246;24117;-79
2022/03/16 05:40:53;;;;;;;71.90;21.73;;;5.00;99.90;4.10;101381;;;;568793;247;24046;-79
2022/03/16 05:43:22;;;;;;;66.33;19.80;;;5.00;99.90;4.10;101383;;;;568900;247;24076;-79
2022/03/16 05:45:50;;;;;;;49.80;18.70;;;5.00;99.90;4.20;101378;;;;567435;247;24054;-79
2022/03/16 05:48:18;;;;;;;56.43;19.00;;;5.10;99.90;4.30;101390;;;;573352;247;24057;-79
2022/03/16 05:50:46;;;;;;;60.63;20.37;;;5.20;99.90;4.30;101399;;;;569396;246;24107;-79
2022/03/16 05:53:17;;;;;;;71.33;19.00;;;5.20;99.90;4.30;101393;;;;569897;246;24061;-79
2022/03/16 05:55:45;;;;;;;65.53;22.27;;;5.20;99.90;4.30;101399;;;;583312;244;24072;-80
2022/03/16 05:58:10;;;;;;;144.62;39.47;;;5.30;99.90;4.40;101397;;;;569251;246;35151;-80
2022/03/16 06:00:41;;;;;;;120.30;28.97;;;5.30;99.90;4.40;101394;;;;569289;247;24052;-79
2022/03/16 06:03:06;;;;;;;92.87;30.07;;;5.30;99.90;4.50;101409;;;;569467;247;24087;-79
2022/03/16 06:05:35;;;;;;;85.37;27.63;;;5.40;99.90;4.50;101403;;;;574303;247;24056;-79
2022/03/16 06:08:03;;;;;;;73.60;26.27;;;5.30;99.90;4.50;101397;;;;569195;247;24061;-79
2022/03/16 06:10:30;;;;;;;76.37;26.23;;;5.40;99.90;4.60;101401;;;;582866;246;24119;-79
2022/03/16 06:13:01;;;;;;;70.13;27.23;;;5.50;99.90;4.70;101411;;;;569096;247;24046;-80
2022/03/16 06:15:30;;;;;;;72.77;27.77;;;5.60;99.90;4.70;101410;;;;567853;247;24134;-80
2022/03/16 06:18:01;;;;;;;64.53;26.50;;;5.60;99.90;4.70;101425;;;;567708;247;25101;-80
2022/03/16 06:20:26;;;;;;;68.37;27.87;;;5.60;99.90;4.70;101421;;;;574001;247;24101;-80
2022/03/16 06:22:54;;;;;;;78.40;27.13;;;5.50;99.90;4.70;101420;;;;573969;247;24070;-81
2022/03/16 06:25:24;;;;;;;69.97;27.50;;;5.60;99.90;4.70;101426;;;;582751;246;24059;-80
2022/03/16 06:27:50;;;;;;;89.10;32.60;;;5.60;99.90;4.80;101422;;;;582524;246;24066;-80
2022/03/16 06:30:21;;;;;;;75.07;31.40;;;5.60;99.90;4.80;101426;;;;568988;247;25131;-80
2022/03/16 06:32:48;;;;;;;70.43;31.20;;;5.60;99.90;4.90;101436;;;;582145;247;24128;-81
2022/03/16 06:35:16;;;;;;;77.77;32.50;;;5.80;99.90;5.00;101433;;;;574406;247;24113;-80
2022/03/16 06:37:45;;;;;;;79.57;32.10;;;5.80;99.90;5.10;101431;;;;574116;247;25102;-80
2022/03/16 06:40:09;;;;;;;81.47;35.87;;;5.90;99.90;5.30;101437;;;;574270;247;24075;-81
2022/03/16 06:42:49;;;;;;;83.67;34.13;;;6.10;99.90;5.50;101442;;;;583041;247;24099;-81
2022/03/16 06:45:21;;;;;;;84.23;35.10;;;6.30;99.90;5.50;101454;;;;581606;247;24088;-81
2022/03/16 06:47:45;;;;;;;78.90;33.77;;;6.30;99.90;5.60;101453;;;;574568;247;24065;-79
2022/03/16 06:50:14;;;;;;;89.53;40.50;;;6.40;99.90;5.50;101462;;;;569291;247;24065;-81
2022/03/16 06:52:42;;;;;;;61.47;29.77;;;6.40;99.90;5.50;101452;;;;574032;247;24079;-80
2022/03/16 06:55:12;;;;;;;58.83;26.97;;;6.40;99.90;5.40;101460;;;;568989;247;24132;-78
2022/03/16 06:57:41;;;;;;;59.47;28.60;;;6.30;99.90;5.30;101463;;;;582650;247;24096;-79
2022/03/16 07:00:06;;;;;;;63.43;31.77;;;6.20;99.90;5.30;101464;;;;573135;247;24088;-79
2022/03/16 07:02:51;;;;;;;72.43;28.93;;;6.20;99.90;5.20;101467;;;;569739;246;24068;-80
2022/03/16 07:05:19;;;;;;;65.07;29.37;;;6.10;99.90;5.20;101465;;;;574394;246;24056;-80
2022/03/16 07:07:48;;;;;;;54.90;25.40;;;6.10;99.90;5.20;101463;;;;574327;246;24124;-81
2022/03/16 07:10:20;;;;;;;73.10;28.33;;;6.10;99.90;5.20;101469;;;;570135;247;24171;-81
2022/03/16 07:12:44;;;;;;;88.80;38.37;;;6.10;99.90;5.20;101472;;;;578311;246;35168;-81
2022/03/16 07:15:12;;;;;;;90.03;40.08;;;6.10;99.90;5.20;101471;;;;565117;247;35161;-81
2022/03/16 07:17:40;;;;;;;78.93;38.05;;;6.10;99.90;5.20;101473;;;;579054;246;35092;-80
2022/03/16 07:20:08;;;;;;;65.87;26.87;;;6.20;99.90;5.30;101486;;;;575086;247;24099;-81
2022/03/16 07:22:40;;;;;;;55.80;24.57;;;6.30;99.90;5.40;101484;;;;575066;245;24142;-80
2022/03/16 07:25:09;;;;;;;59.73;24.17;;;6.20;99.90;5.60;101487;;;;572604;247;24126;-78
2022/03/16 07:27:33;;;;;;;43.43;23.03;;;6.50;99.90;5.90;101485;;;;583500;246;24063;-80
2022/03/16 07:30:01;;;;;;;53.10;24.00;;;6.70;99.90;6.10;101485;;;;569818;247;24053;-82
2022/03/16 07:32:29;;;;;;;56.07;25.30;;;7.00;99.90;6.40;101488;;;;569905;247;24064;-83
2022/03/16 07:34:57;;;;;;;46.40;22.53;;;7.20;99.90;6.60;101499;;;;569867;247;24038;-82
2022/03/16 07:37:24;;;;;;;56.50;26.77;;;7.40;99.90;6.70;101503;;;;569905;247;24062;-82
2022/03/16 07:39:52;;;;;;;65.30;27.87;;;7.60;99.90;6.80;101509;;;;574518;247;24082;-80
2022/03/16 07:42:20;;;;;;;57.53;25.47;;;7.70;99.90;6.90;101516;;;;569261;247;24062;-81
2022/03/16 07:44:50;;;;;;;56.10;27.37;;;7.80;99.90;7.00;101516;;;;583150;246;24109;-79
2022/03/16 07:47:16;;;;;;;38.53;20.97;;;7.90;99.90;7.00;101518;;;;569489;247;24473;-80
2022/03/16 07:49:44;;;;;;;35.50;18.37;;;7.90;99.90;7.00;101529;;;;569118;247;24110;-78
2022/03/16 07:52:12;;;;;;;31.90;17.97;;;8.00;99.90;7.00;101521;;;;568860;247;24120;-80
2022/03/16 07:54:40;;;;;;;36.43;19.83;;;8.00;99.90;7.10;101525;;;;568970;247;24054;-79
2022/03/16 07:57:08;;;;;;;34.67;19.30;;;8.00;99.90;7.00;101528;;;;568914;247;24080;-80
2022/03/16 07:59:36;;;;;;;28.83;17.00;;;8.00;99.90;7.00;101536;;;;569001;247;24123;-80
2022/03/16 08:02:04;;;;;;;22.87;14.70;;;7.90;99.90;6.90;101534;;;;573757;247;24057;-79
2022/03/16 08:04:31;;;;;;;20.67;14.00;;;7.90;99.90;6.80;101547;;;;573941;246;24061;-82
2022/03/16 08:06:59;;;;;;;19.07;13.57;;;7.80;99.90;6.70;101547;;;;569098;247;24054;-78
2022/03/16 08:09:27;;;;;;;20.90;13.87;;;7.70;99.90;6.60;101557;;;;568917;247;24053;-79
2022/03/16 08:11:55;;;;;;;21.77;12.70;;;7.60;99.90;6.40;101557;;;;569061;247;24124;-80
2022/03/16 08:14:23;;;;;;;25.00;13.97;;;7.50;99.90;6.30;101562;;;;570224;246;24051;-79
2022/03/16 08:16:51;;;;;;;22.60;14.07;;;7.30;99.90;6.20;101563;;;;570305;246;24052;-81
2022/03/16 08:19:21;;;;;;;21.17;14.07;;;7.20;99.90;6.10;101565;;;;583376;246;24080;-79
2022/03/16 08:21:50;;;;;;;22.63;13.87;;;7.10;99.90;6.00;101570;;;;569346;247;24069;-80
2022/03/16 08:24:16;;;;;;;23.87;12.37;;;7.00;99.90;5.90;101583;;;;582534;246;24107;-80
2022/03/16 08:26:43;;;;;;;20.13;13.07;;;6.90;99.90;5.90;101573;;;;574144;247;24056;-80
2022/03/16 08:29:11;;;;;;;22.27;13.97;;;6.80;99.90;5.80;101583;;;;574132;247;24050;-79
2022/03/16 08:31:40;;;;;;;19.90;12.43;;;6.70;99.90;5.70;101574;;;;569131;247;24084;-80
2022/03/16 08:34:09;;;;;;;21.53;13.13;;;6.60;99.90;5.60;101579;;;;569060;247;24077;-79
2022/03/16 08:36:38;;;;;;;23.57;14.40;;;6.60;99.90;5.50;101573;;;;569226;247;24053;-79
2022/03/16 08:39:04;;;;;;;23.07;13.83;;;6.40;99.90;5.40;101578;;;;569241;247;24058;-79
2022/03/16 08:41:35;;;;;;;30.13;16.50;;;6.30;99.90;5.40;101585;;;;569299;247;24061;-78
2022/03/16 08:44:03;;;;;;;26.53;16.77;;;6.30;99.90;5.30;101589;;;;582794;246;25103;-78
2022/03/16 08:46:34;;;;;;;24.47;14.50;;;6.20;99.90;5.30;101590;;;;573609;247;24107;-80
2022/03/16 08:48:59;;;;;;;26.60;15.90;;;6.20;99.90;5.20;101589;;;;573650;247;24077;-80
2022/03/16 08:51:26;;;;;;;24.77;15.07;;;6.10;99.90;5.30;101592;;;;568491;247;25502;-79
2022/03/16 08:53:54;;;;;;;26.10;15.30;;;6.10;99.90;5.20;101597;;;;568551;247;24063;-79
2022/03/16 08:56:22;;;;;;;24.53;14.97;;;6.10;99.90;5.20;101594;;;;568496;247;24072;-79
2022/03/16 08:58:51;;;;;;;26.47;15.13;;;6.00;99.90;5.10;101603;;;;568842;247;24084;-80
2022/03/16 09:01:20;;;;;;;26.57;15.67;;;6.00;99.90;5.10;101590;;;;568565;247;24058;-79
2022/03/16 09:03:48;;;;;;;25.13;15.77;;;6.00;99.90;5.10;101599;;;;568599;247;24094;-80
2022/03/16 09:06:15;;;;;;;26.90;16.50;;;6.00;99.90;5.10;101592;;;;569048;247;24058;-81
2022/03/16 09:08:43;;;;;;;22.40;14.90;;;6.00;99.90;5.20;101597;;;;569026;247;24156;-80
2022/03/16 09:11:14;;;;;;;27.23;15.43;;;6.10;99.90;5.20;101594;;;;569385;247;24041;-79
2022/03/16 09:13:39;;;;;;;29.03;15.77;;;6.10;99.90;5.30;101608;;;;574176;247;24085;-80
2022/03/16 09:16:08;;;;;;;24.50;16.30;;;6.20;99.90;5.30;101606;;;;582601;246;24155;-79
2022/03/16 09:18:37;;;;;;;21.43;14.37;;;6.30;99.90;5.40;101606;;;;569359;247;24113;-79
2022/03/16 09:21:04;;;;;;;23.40;16.30;;;6.20;99.90;5.40;101612;;;;582820;247;24051;-78
2022/03/16 09:23:32;;;;;;;23.23;15.10;;;6.30;99.90;5.50;101616;;;;569406;247;24034;-79
2022/03/16 09:26:00;;;;;;;24.70;16.03;;;6.30;99.90;5.50;101612;;;;569977;246;24097;-78
2022/03/16 09:28:28;;;;;;;28.83;17.47;;;6.40;99.90;5.60;101615;;;;574559;246;24048;-79
2022/03/16 09:30:57;;;;;;;35.63;22.97;;;6.50;99.90;5.60;101622;;;;583066;245;24086;-80
2022/03/16 09:33:26;;;;;;;28.83;18.70;;;6.50;99.90;5.70;101634;;;;569491;247;24096;-79
2022/03/16 09:35:53;;;;;;;28.77;18.13;;;6.50;99.90;5.60;101629;;;;569328;247;24082;-78
2022/03/16 09:38:21;;;;;;;29.37;17.43;;;6.50;99.90;5.60;101639;;;;569318;247;24069;-78
2022/03/16 09:40:49;;;;;;;30.13;16.90;;;6.50;99.90;5.60;101628;;;;574221;247;24108;-79
2022/03/16 09:43:17;;;;;;;27.60;18.40;;;6.50;99.90;5.60;101644;;;;573903;247;24095;-81
2022/03/16 09:45:51;;;;;;;28.87;17.83;;;6.50;99.90;5.60;101643;;;;568728;247;24120;-80
2022/03/16 09:48:21;;;;;;;28.83;17.60;;;6.40;99.90;5.50;101645;;;;573765;247;24046;-80
2022/03/16 09:50:51;;;;;;;35.80;18.80;;;6.40;99.90;5.60;101646;;;;573683;247;24092;-79
2022/03/16 09:53:16;;;;;;;32.57;18.63;;;6.40;99.90;5.60;101654;;;;574201;247;24054;-80
2022/03/16 09:55:44;;;;;;;30.73;18.53;;;6.50;99.90;5.60;101656;;;;569382;247;24058;-80
2022/03/16 09:58:11;;;;;;;29.50;18.50;;;6.50;99.90;5.70;101659;;;;569453;247;24144;-79
2022/03/16 10:00:39;;;;;;;35.07;25.73;;;6.50;99.90;5.70;101654;;;;564272;247;35105;-79
2022/03/16 10:03:07;;;;;;;36.30;25.58;;;6.60;99.90;5.80;101656;;;;564164;247;35040;-80
2022/03/16 10:05:36;;;;;;;33.00;20.43;;;6.60;99.90;5.80;101665;;;;568899;247;24090;-79
2022/03/16 10:08:05;;;;;;;25.47;16.57;;;6.70;99.90;5.80;101654;;;;568978;247;24059;-80
2022/03/16 10:13:23;;;;;;;26.07;16.20;;;6.70;99.90;5.70;101663;;;;568085;247;24062;-78
2022/03/16 10:15:55;;;;;;;29.07;17.73;;;6.60;99.90;5.70;101657;;;;573871;247;24092;-78
2022/03/16 10:18:26;;;;;;;29.77;16.00;;;6.60;99.90;5.80;101659;;;;581889;246;24122;-78
2022/03/16 10:20:52;;;;;;;30.53;17.90;;;6.70;99.90;5.90;101666;;;;573589;247;24140;-78
2022/03/16 10:23:21;;;;;;;27.63;16.73;;;6.80;99.90;6.00;101667;;;;569048;247;24077;-80
2022/03/16 10:25:52;;;;;;;25.27;15.07;;;6.80;99.90;6.00;101664;;;;569282;247;24074;-80
2022/03/16 10:28:20;;;;;;;26.30;15.90;;;6.90;99.90;6.00;101663;;;;573359;247;24053;-79
2022/03/16 10:31:06;;;;;;;24.60;14.77;;;6.90;99.90;6.00;101658;;;;573775;247;24090;-79
2022/03/16 10:33:48;;;;;;;28.33;15.83;;;6.90;99.90;6.00;101663;;;;582533;246;24062;-79
2022/03/16 10:36:20;;;;;;;30.67;17.53;;;6.90;99.90;6.00;101672;;;;574516;246;24051;-80
2022/03/16 10:38:59;;;;;;;27.13;16.80;;;6.90;99.90;6.00;101667;;;;583470;246;24071;-80
2022/03/16 10:47:16;;;;;;;29.67;18.03;;;7.00;99.90;6.20;101680;;;;583963;245;24087;-80
2022/03/16 10:49:44;;;;;;;30.20;16.00;;;7.00;99.90;6.20;101671;;;;574350;247;24073;-78
2022/03/16 10:52:15;;;;;;;27.27;16.47;;;7.00;99.90;6.20;101680;;;;574506;247;24095;-78
2022/03/16 10:54:44;;;;;;;25.37;14.73;;;7.10;99.90;6.20;101680;;;;583000;245;24110;-78
2022/03/16 10:57:13;;;;;;;30.43;18.07;;;7.00;99.90;6.20;101676;;;;573984;245;24112;-78
2022/03/16 10:59:39;;;;;;;26.53;16.40;;;7.00;99.90;6.30;101674;;;;582662;246;24076;-81
2022/03/16 11:02:12;;;;;;;25.20;16.20;;;7.10;99.90;6.40;101665;;;;573941;247;24094;-79
2022/03/16 11:04:40;;;;;;;31.27;17.37;;;7.30;99.90;6.50;101665;;;;573948;247;24077;-79
2022/03/16 11:07:09;;;;;;;28.10;16.47;;;7.40;99.90;6.50;101667;;;;582566;246;25125;-80
2022/03/16 11:09:34;;;;;;;27.10;16.63;;;7.30;99.90;6.50;101670;;;;571603;247;24058;-79
2022/03/16 11:14:50;;;;;;;32.63;15.73;;;7.40;99.90;6.70;101668;;;;568212;247;24123;-79
2022/03/16 11:17:18;;;;;;;29.00;18.43;;;7.50;99.90;6.90;101673;;;;573580;247;24068;-79
2022/03/16 11:19:50;;;;;;;27.10;17.23;;;7.60;99.90;6.90;101672;;;;582798;246;24072;-79
2022/03/16 11:22:19;;;;;;;26.63;16.53;;;7.70;99.90;6.90;101685;;;;582814;246;24083;-81
2022/03/16 11:24:51;;;;;;;28.20;16.53;;;7.80;99.90;7.00;101684;;;;568078;247;24094;-81